カフルイ の空港の天気 - METARとTAF

カフルイ空港 ( PHOG / OGG ) - アメリカ ハワイ州カフルイ
飛行場実況気象(Metar)
観測時間02/05 10:54 HST (02/05 20:54 UTC)
風向・風速東北東 11m/s 瞬間風速15m/s
視程10km以上
天気現象
全天の4割程度の雲 雲底高度 910m
気温26.1℃
湿度67%
気圧1020.4hPa
METARPHOG 052054Z 07021G30KT 10SM SCT030 26/19 A3012 RMK AO2 PK WND 06031/2044 SLP204 T02610194 53004
過去の天気等 Google飛行場航空写真 Wunderground天気予報

過去48時間のMETAR

飛行場予報(TAF)
発表時間: 2/05 10:59 HST (2/05 20:59 UTC)
予報対象時間: 5日11時 HST ~ 6日8時 HST
風向・風速北東 10m/s 瞬間風速 14m/s
視程10km以上
全天の4割程度の雲 雲底高度 760m
全天の4割程度の雲 雲底高度 1830m
5日20時 HST から
風向・風速東北東 5m/s
視程10km以上
全天の4割程度の雲 雲底高度 760m
全天の4割程度の雲 雲底高度 1520m
PHOG 052059Z 0521/0618 05020G28KT P6SM SCT025 SCT060 WS004/11020KT
FM060600 06010KT P6SM SCT025 SCT050